• Join FlightAware (Why Join?)
  • Login
  • US Flag 
07:49AM EDT


 

Airport Tracker/Info


-or-


 

Live Flight TrackerFlight Track Log ✈ JBU1853 ✈ 11-Feb-2014 ✈ KFLL - TJSJ / SJU

Flight Track Log - Related Links

Times and Time Zones

All times are in EST time to prevent confusion due to time zone crossing. See the JBU1853 flight status page for this flight to view local times or setup timezone preferences in your user account.

Time Position Orientation Groundspeed Altitude Reporting Facility
EST Latitude Longitude Course Direction KTS MPH feet Rate Location/Type
09:12PM 26.0750 -80.1367 99° East 151 174 800  Level Miami Center
09:13PM 26.0803 -80.0883 83° East 211 243 2,200 2,340 Climbing Miami Center
09:14PM 26.0839 -80.0167 87° East 280 322 4,900 3,000 Climbing Miami Center
09:15PM 26.0714 -79.9192 98° East 308 354 8,600 2,640 Climbing Miami Center
09:16PM 26.0083 -79.5704 104° East  Level FlightAware Approximate
09:16PM 26.0544 -79.8239 101° East 319 367 10,700  Level Miami Center
09:17PM 25.9734 -79.4307 99° East  Level FlightAware Approximate
09:17PM 26.0339 -79.7056 101° East 352 405 13,100  Level Miami Center
09:18PM 25.9528 -79.2859 99° East  Level FlightAware Approximate
09:18PM 26.0111 -79.5847 102° East 384 442 16,000  Level Miami Center
09:19PM 25.9842 -79.4617 104° East 407 468 18,400 2,280 Climbing Miami Center
09:20PM 25.9236 -79.3333 118° Southeast 416 479 20,600 1,800 Climbing Miami Center
09:21PM 25.8731 -79.2261 118° Southeast 434 499 22,100 1,620 Climbing Miami Center
09:22PM 25.8103 -79.1025 119° Southeast 447 514 23,900 1,740 Climbing Miami Center
09:23PM 25.7411 -78.9742 121° Southeast 458 527 25,600 1,500 Climbing Miami Center
09:24PM 25.6761 -78.8508 120° Southeast 469 540 27,000 1,200 Climbing Miami Center
09:25PM 25.6089 -78.7186 119° Southeast 481 554 28,100 1,020 Climbing Miami Center
09:26PM 25.5414 -78.5792 118° Southeast 494 568 29,100 1,200 Climbing Miami Center
09:27PM 25.4719 -78.4447 120° Southeast 499 574 30,500 1,260 Climbing Miami Center
09:28PM 25.4003 -78.3081 120° Southeast 504 580 31,700 1,200 Climbing Miami Center
09:29PM 25.3306 -78.1717 119° Southeast 504 580 32,900 1,200 Climbing Miami Center
09:30PM 25.2583 -78.0353 120° Southeast 509 586 34,100 1,200 Climbing Miami Center
09:31PM 25.1883 -77.9014 120° Southeast 509 586 35,300 1,140 Climbing Miami Center
09:32PM 25.1183 -77.7678 120° Southeast 504 580 36,400 960 Climbing Miami Center
09:33PM 25.0500 -77.6411 121° Southeast 498 573 37,300 780 Climbing Miami Center
09:34PM 24.9714 -77.4847 119° Southeast 504 580 38,000 720 Climbing Miami Center
09:35PM 24.9008 -77.3583 122° Southeast 515 593 38,800 480 Climbing Miami Center
09:36PM 24.8342 -77.2275 119° Southeast 515 593 39,000 60 Climbing Miami Center
09:37PM 24.7614 -77.0900 120° Southeast 515 593 39,000  Level Miami Center
09:38PM 24.6883 -76.9525 120° Southeast 515 593 39,000  Level Miami Center
09:39PM 24.6172 -76.8178 120° Southeast 515 593 39,000  Level Miami Center
09:40PM 24.5419 -76.6831 122° Southeast 515 593 39,000  Level Miami Center
09:41PM 24.4706 -76.5461 120° Southeast 515 593 39,000  Level Miami Center
09:42PM 24.3931 -76.3978 120° Southeast 515 593 39,000  Level Miami Center
09:43PM 24.3192 -76.2614 121° Southeast 515 593 39,000  Level Miami Center
09:44PM 24.2456 -76.1272 121° Southeast 520 598 39,000  Level Miami Center
09:45PM 24.1736 -75.9911 120° Southeast 515 593 39,000  Level Miami Center
09:46PM 24.0997 -75.8550 121° Southeast 520 598 39,000  Level Miami Center
09:47PM 24.0319 -75.7325 121° Southeast 520 598 39,000  Level Miami Center
09:48PM 23.9578 -75.5944 120° Southeast 520 598 39,000  Level Miami Center
09:49PM 23.8833 -75.4567 121° Southeast 525 604 39,000  Level Miami Center
09:50PM 23.8067 -75.3214 122° Southeast 525 604 39,000  Level Miami Center
09:51PM 23.7300 -75.1817 121° Southeast 530 610 39,000  Level Miami Center
09:52PM 23.6553 -75.0486 121° Southeast 530 610 39,000  Level Miami Center
09:53PM 23.5806 -74.9136 121° Southeast 525 604 39,000  Level Miami Center
09:54PM 23.5078 -74.7811 121° Southeast 520 598 39,000  Level Miami Center
09:55PM 23.4306 -74.6444 122° Southeast 520 598 39,000  Level Miami Center
09:56PM 23.3553 -74.5100 121° Southeast 520 598 39,000  Level Miami Center
09:57PM 23.2800 -74.3756 121° Southeast 520 598 39,000  Level Miami Center
09:58PM 23.2047 -74.2392 121° Southeast 520 598 39,000  Level Miami Center
09:59PM 23.1292 -74.1097 122° Southeast 515 593 39,000  Level Miami Center
10:00PM 23.0514 -73.9736 122° Southeast 522 601 39,000  Level Miami Center
10:01PM 22.9797 -73.8378 120° Southeast 522 601 39,000  Level Miami Center
10:02PM 22.9019 -73.7042 122° Southeast 522 601 39,000  Level Miami Center
10:03PM 22.8217 -73.5733 124° Southeast 522 601 39,000  Level Miami Center
10:04PM 22.7414 -73.4267 121° Southeast 522 601 39,000  Level Miami Center
10:05PM 22.6631 -73.2917 122° Southeast 517 595 39,000  Level Miami Center
10:06PM 22.5825 -73.1611 124° Southeast 517 595 39,000  Level Miami Center
10:07PM 22.5167 -73.0258 118° Southeast 512 589 39,000  Level Miami Center
10:08PM 22.4381 -72.8956 123° Southeast 512 589 39,000  Level Miami Center
10:09PM 22.3592 -72.7611 122° Southeast 512 589 39,000  Level Miami Center
10:10PM 22.2847 -72.6289 121° Southeast 512 589 39,000  Level Miami Center
10:11PM 22.2058 -72.4969 123° Southeast 512 589 39,000  Level Miami Center
10:12PM 22.1289 -72.3650 122° Southeast 517 595 39,000  Level Miami Center
10:13PM 22.0561 -72.2331 121° Southeast 522 601 39,000  Level Miami Center
10:14PM 21.9769 -72.1017 123° Southeast 522 601 39,000  Level Miami Center
10:15PM 21.9017 -71.9681 121° Southeast 522 601 39,000  Level Miami Center
10:16PM 21.8244 -71.8389 123° Southeast 517 595 39,000  Level Miami Center
10:17PM 21.7450 -71.7081 123° Southeast 517 595 39,000  Level Miami Center
10:18PM 21.6675 -71.5747 122° Southeast 517 595 39,000  Level Miami Center
10:19PM 21.5897 -71.4442 123° Southeast 517 595 39,000  Level Miami Center
10:20PM 21.5144 -71.3178 123° Southeast 517 595 39,000  Level Miami Center
10:21PM 21.4433 -71.2028 124° Southeast 517 595 39,000  Level Miami Center
10:22PM 21.3658 -71.0769 123° Southeast 517 595 39,000  Level Miami Center
10:23PM 21.2828 -70.9269 121° Southeast 454 522 39,000  Level Miami Center
10:24PM 21.2047 -70.7969 123° Southeast 488 562 39,000  Level Miami Center
10:25PM 21.1267 -70.6669 123° Southeast 511 588 39,000  Level Miami Center
10:26PM 21.0506 -70.5372 122° Southeast 517 595 39,000  Level Miami Center
10:27PM 20.9722 -70.4078 123° Southeast 517 595 39,000  Level Miami Center
10:28PM 20.8917 -70.2764 123° Southeast 517 595 39,000  Level Miami Center
10:29PM 20.8131 -70.1472 123° Southeast 522 601 39,000  Level Miami Center
10:30PM 20.7364 -70.0158 122° Southeast 522 601 39,000  Level Miami Center
10:31PM 20.6558 -69.8869 124° Southeast 522 601 39,000  Level Miami Center
10:32PM 20.5789 -69.7539 122° Southeast 522 601 39,000  Level Miami Center
10:33PM 20.4981 -69.6275 124° Southeast 522 601 39,000  Level Miami Center
10:34PM 20.4231 -69.4967 121° Southeast 522 601 39,000  Level Miami Center
10:35PM 20.3400 -69.3686 125° Southeast 522 601 39,000  Level Miami Center
10:36PM 20.2628 -69.2383 122° Southeast 522 601 39,000  Level Miami Center
10:37PM 20.1817 -69.1083 124° Southeast 527 606 39,000  Level Miami Center
10:38PM 20.1044 -68.9806 123° Southeast 527 606 39,000  Level Miami Center
10:39PM 20.0269 -68.8483 122° Southeast 527 606 39,000  Level Miami Center
10:40PM 19.9514 -68.7183 122° Southeast 527 606 39,000  Level Miami Center
10:41PM 19.8761 -68.5886 122° Southeast 527 606 39,000  Level Miami Center
10:42PM 19.7942 -68.4594 124° Southeast 527 606 39,000  Level Miami Center
10:43PM 19.7186 -68.3300 122° Southeast 521 600 39,000  Level Miami Center
10:44PM 19.6450 -68.2006 121° Southeast 521 600 39,000  Level Miami Center
10:45PM 19.5689 -68.0669 121° Southeast 521 600 39,000 -660 Level Miami Center
10:46PM 19.4950 -67.9358 121° Southeast 521 600 37,800 -2,040 Descending Miami Center
10:47PM 19.4128 -67.8072 124° Southeast 521 600 35,000 -2,760 Descending Miami Center
10:48PM 19.3333 -67.6897 126° Southeast 516 594 32,300 -2,820 Descending Miami Center
10:49PM 19.2333 -67.5167 121° Southeast 490 564 28,500 -2,760 Descending San Juan Center
10:51PM 19.1500 -67.4000 127° Southeast 470 541 25,900 -2,400 Descending San Juan Center
10:52PM 19.0833 -67.2833 121° Southeast 460 529 23,700 -2,340 Descending San Juan Center
10:53PM 19.0167 -67.1667 121° Southeast 440 506 21,300 -2,220 Descending San Juan Center
10:54PM 18.9500 -67.0667 125° Southeast 430 495 19,300 -2,280 Descending San Juan Center
10:55PM 18.8833 -66.9500 121° Southeast 400 460 16,800 -2,280 Descending San Juan Center
10:56PM 18.8333 -66.8500 118° Southeast 370 426 14,800 -1,920 Descending San Juan Center
10:57PM 18.7833 -66.7667 122° Southeast 360 414 13,000 -1,800 Descending San Juan Center
10:58PM 18.7333 -66.6833 122° Southeast 330 380 11,200 -1,740 Descending San Juan Center
10:59PM 18.6833 -66.6167 128° Southeast 310 357 9,600 -1,380 Descending San Juan Center
11:00PM 18.6333 -66.5333 122° Southeast 310 357 8,500 -1,140 Descending San Juan Center
11:01PM 18.5833 -66.4667 128° Southeast 280 322 7,400 -1,080 Descending San Juan Center
11:02PM 18.5500 -66.4000 118° Southeast 280 322 6,400 -1,020 Descending San Juan Center
11:03PM 18.5167 -66.3333 118° Southeast 270 311 5,400 -1,140 Descending San Juan Center
11:04PM 18.4667 -66.2667 128° Southeast 260 299 4,200 -1,260 Descending San Juan Center
11:05PM 18.4333 -66.2000 118° Southeast 250 288 2,900 -900 Descending San Juan Center
11:06PM 18.4333 -66.1333 90° East 200 230 2,400 -720 Descending San Juan Center
11:07PM 18.4333 -66.0833 90° East 170 196 1,500 -780 Descending San Juan Center
11:08PM 18.4333 -66.0500 90° East 110 127 900 -600 Descending San Juan Center
11:09PM 18.4333 -66.0167 90° East 110 127 300 -600 Descending San Juan Center